Time,TemperatureF,DewpointF,PressureIn,WindDirection,WindDirectionDegrees,WindSpeedMPH,WindSpeedGustMPH,Humidity,HourlyPrecipIn,Conditions,Clouds,dailyrainin,SoftwareType,DateUTC
2013-07-24 00:00:00,72.2,71.9,29.59,NNE,25,0.0,0.0,99,0.00,,,0.24,VWS V14.01,2013-07-24 04:00:00,
2013-07-24 00:01:00,72.2,71.9,29.59,NNE,25,0.0,0.0,99,0.00,,,0.00,VWS V14.01,2013-07-24 04:01:00,
2013-07-24 00:02:00,72.2,71.9,29.59,NNE,25,0.0,0.0,99,0.00,,,0.00,VWS V14.01,2013-07-24 04:02:00,
2013-07-24 00:07:00,72.2,71.9,29.59,NNE,25,0.0,0.0,99,0.00,,,0.00,VWS V14.01,2013-07-24 04:07:00,
2013-07-24 00:12:00,72.2,71.9,29.60,NNE,25,0.0,0.0,99,0.00,,,0.00,VWS V14.01,2013-07-24 04:12:00,
2013-07-24 00:17:00,72.2,71.9,29.60,NNE,25,0.0,0.0,99,0.00,,,0.00,VWS V14.01,2013-07-24 04:17:00,
2013-07-24 00:22:00,72.2,71.9,29.60,NNE,25,0.0,0.0,99,0.00,,,0.00,VWS V14.01,2013-07-24 04:22:00,
2013-07-24 00:27:00,72.1,71.8,29.60,NNE,25,0.0,0.0,99,0.00,,,0.00,VWS V14.01,2013-07-24 04:27:00,
2013-07-24 00:32:00,72.1,71.8,29.60,NNE,25,0.0,0.0,99,0.00,,,0.00,VWS V14.01,2013-07-24 04:32:00,
2013-07-24 00:37:00,71.9,71.6,29.60,NNE,25,0.0,0.0,99,0.00,,,0.00,VWS V14.01,2013-07-24 04:37:00,
2013-07-24 00:42:00,71.9,71.6,29.59,NNE,25,0.0,0.0,99,0.00,,,0.00,VWS V14.01,2013-07-24 04:42:00,
2013-07-24 00:47:00,71.8,71.5,29.60,NNE,25,0.0,0.0,99,0.00,,,0.00,VWS V14.01,2013-07-24 04:47:00,
2013-07-24 00:52:00,71.7,71.1,29.60,NNE,25,0.0,0.0,98,0.00,,,0.00,VWS V14.01,2013-07-24 04:52:00,
2013-07-24 00:58:00,71.6,71.0,29.60,NNE,25,0.0,0.0,98,0.00,,,0.00,VWS V14.01,2013-07-24 04:58:00,
2013-07-24 01:03:00,71.5,71.2,29.60,NNE,25,0.0,0.0,99,0.01,,,0.01,VWS V14.01,2013-07-24 05:03:00,
2013-07-24 01:08:00,71.4,71.1,29.60,NNE,25,0.0,0.0,99,0.01,,,0.01,VWS V14.01,2013-07-24 05:08:00,
2013-07-24 01:13:00,71.3,71.0,29.60,NNE,25,0.0,0.0,99,0.01,,,0.01,VWS V14.01,2013-07-24 05:13:00,
2013-07-24 01:18:00,71.3,71.0,29.60,NNE,25,0.0,0.0,99,0.01,,,0.01,VWS V14.01,2013-07-24 05:18:00,
2013-07-24 01:23:00,71.2,70.9,29.60,SSE,148,0.0,0.0,99,0.01,,,0.01,VWS V14.01,2013-07-24 05:23:00,
2013-07-24 01:28:00,71.1,70.8,29.60,SSE,148,0.0,0.0,99,0.01,,,0.01,VWS V14.01,2013-07-24 05:28:00,
2013-07-24 01:33:00,71.1,70.8,29.60,SSE,148,0.0,0.0,99,0.01,,,0.01,VWS V14.01,2013-07-24 05:33:00,
2013-07-24 01:38:00,71.1,70.8,29.60,SSE,148,0.0,0.0,99,0.01,,,0.01,VWS V14.01,2013-07-24 05:38:00,
2013-07-24 01:43:00,71.1,70.8,29.60,SSE,148,0.0,0.0,99,0.01,,,0.01,VWS V14.01,2013-07-24 05:43:00,
2013-07-24 01:49:00,71.1,70.8,29.60,SSE,148,0.0,0.0,99,0.01,,,0.01,VWS V14.01,2013-07-24 05:49:00,
2013-07-24 01:54:00,71.0,70.7,29.60,SSE,148,0.0,0.0,99,0.01,,,0.01,VWS V14.01,2013-07-24 05:54:00,
2013-07-24 01:59:00,70.9,70.6,29.60,SSE,148,0.0,0.0,99,0.01,,,0.01,VWS V14.01,2013-07-24 05:59:00,
2013-07-24 02:04:00,70.8,70.5,29.60,SSE,148,0.0,0.0,99,0.01,,,0.01,VWS V14.01,2013-07-24 06:04:00,
2013-07-24 02:09:00,70.8,70.5,29.60,SSE,148,0.0,0.0,99,0.01,,,0.01,VWS V14.01,2013-07-24 06:09:00,
2013-07-24 02:14:00,70.7,70.4,29.59,SSE,148,0.0,0.0,99,0.01,,,0.01,VWS V14.01,2013-07-24 06:14:00,
2013-07-24 02:19:00,70.6,70.3,29.59,SSE,148,0.0,0.0,99,0.01,,,0.01,VWS V14.01,2013-07-24 06:19:00,
2013-07-24 02:24:00,70.5,70.2,29.59,SSE,148,0.0,0.0,99,0.01,,,0.01,VWS V14.01,2013-07-24 06:24:00,
2013-07-24 02:29:00,70.3,70.0,29.60,SSE,148,0.0,0.0,99,0.01,,,0.01,VWS V14.01,2013-07-24 06:29:00,
2013-07-24 02:35:00,70.2,69.9,29.59,SSE,148,0.0,0.0,99,0.00,,,0.01,VWS V14.01,2013-07-24 06:35:00,
2013-07-24 02:40:00,70.2,69.9,29.59,SSE,148,0.0,0.0,99,0.00,,,0.01,VWS V14.01,2013-07-24 06:40:00,
2013-07-24 02:45:00,70.1,69.8,29.59,SSE,148,0.0,0.0,99,0.00,,,0.01,VWS V14.01,2013-07-24 06:45:00,
2013-07-24 02:50:00,70.1,69.8,29.59,SSE,148,0.0,0.0,99,0.01,,,0.02,VWS V14.01,2013-07-24 06:50:00,
2013-07-24 02:55:00,70.0,69.7,29.59,SSE,148,0.0,0.0,99,0.01,,,0.02,VWS V14.01,2013-07-24 06:55:00,
2013-07-24 03:00:00,69.9,69.6,29.59,SSE,148,0.0,0.0,99,0.01,,,0.02,VWS V14.01,2013-07-24 07:00:00,
2013-07-24 03:05:00,69.8,69.5,29.59,SSE,148,0.0,0.0,99,0.01,,,0.02,VWS V14.01,2013-07-24 07:05:00,
2013-07-24 03:10:00,69.7,69.4,29.59,SSE,148,0.0,0.0,99,0.01,,,0.02,VWS V14.01,2013-07-24 07:10:00,
2013-07-24 03:15:00,69.6,69.3,29.59,SSE,148,0.0,0.0,99,0.01,,,0.02,VWS V14.01,2013-07-24 07:15:00,
2013-07-24 03:20:00,69.4,69.1,29.59,SSE,148,0.0,0.0,99,0.01,,,0.02,VWS V14.01,2013-07-24 07:20:00,
2013-07-24 03:25:00,69.4,69.1,29.59,SSE,148,0.0,0.0,99,0.01,,,0.02,VWS V14.01,2013-07-24 07:25:00,
2013-07-24 03:30:00,69.4,69.1,29.60,SSE,148,0.0,0.0,99,0.01,,,0.02,VWS V14.01,2013-07-24 07:30:00,
2013-07-24 03:36:00,69.5,69.2,29.59,SSE,148,0.0,0.0,99,0.01,,,0.02,VWS V14.01,2013-07-24 07:36:00,
2013-07-24 03:41:00,69.4,69.1,29.59,SSE,148,0.0,0.0,99,0.01,,,0.02,VWS V14.01,2013-07-24 07:41:00,
2013-07-24 03:46:00,69.3,69.0,29.59,SSE,148,0.0,0.0,99,0.01,,,0.02,VWS V14.01,2013-07-24 07:46:00,
2013-07-24 03:51:00,69.3,69.0,29.59,SSE,148,0.0,0.0,99,0.01,,,0.02,VWS V14.01,2013-07-24 07:51:00,
2013-07-24 03:56:00,69.4,69.1,29.59,SSE,148,0.0,0.0,99,0.01,,,0.02,VWS V14.01,2013-07-24 07:56:00,
2013-07-24 04:02:00,69.4,69.1,29.59,SSE,148,0.0,0.0,99,0.00,,,0.02,VWS V14.01,2013-07-24 08:02:00,
2013-07-24 04:07:00,69.4,69.1,29.59,SSE,148,0.0,0.0,99,0.00,,,0.02,VWS V14.01,2013-07-24 08:07:00,
2013-07-24 04:12:00,69.4,69.1,29.59,SSE,148,0.0,0.0,99,0.00,,,0.02,VWS V14.01,2013-07-24 08:12:00,
2013-07-24 04:17:00,69.5,69.2,29.59,SSE,148,0.0,0.0,99,0.00,,,0.02,VWS V14.01,2013-07-24 08:17:00,
2013-07-24 04:22:00,69.5,69.2,29.60,SSE,148,0.0,0.0,99,0.00,,,0.02,VWS V14.01,2013-07-24 08:22:00,
2013-07-24 04:27:00,69.5,69.2,29.60,SSE,148,0.0,0.0,99,0.00,,,0.02,VWS V14.01,2013-07-24 08:27:00,
2013-07-24 04:32:00,69.6,69.3,29.60,SSE,148,0.0,0.0,99,0.00,,,0.02,VWS V14.01,2013-07-24 08:32:00,
2013-07-24 04:37:00,69.6,69.3,29.59,SSE,148,0.0,0.0,99,0.00,,,0.02,VWS V14.01,2013-07-24 08:37:00,
2013-07-24 04:42:00,69.6,69.3,29.59,SSE,148,0.0,0.0,99,0.00,,,0.02,VWS V14.01,2013-07-24 08:42:00,
2013-07-24 04:47:00,69.6,69.3,29.60,SSE,148,0.0,0.0,99,0.00,,,0.02,VWS V14.01,2013-07-24 08:47:00,
2013-07-24 04:52:00,69.7,69.4,29.60,SSE,148,0.0,0.0,99,0.00,,,0.02,VWS V14.01,2013-07-24 08:52:00,
2013-07-24 04:57:00,69.7,69.4,29.60,SSE,148,0.0,0.0,99,0.00,,,0.02,VWS V14.01,2013-07-24 08:57:00,
2013-07-24 05:02:00,69.7,69.4,29.60,SSE,148,0.0,0.0,99,0.00,,,0.02,VWS V14.01,2013-07-24 09:02:00,
2013-07-24 05:07:00,69.7,69.4,29.60,SSE,148,0.0,0.0,99,0.00,,,0.02,VWS V14.01,2013-07-24 09:07:00,
2013-07-24 05:12:00,69.6,69.3,29.60,SSE,148,0.0,0.0,99,0.00,,,0.02,VWS V14.01,2013-07-24 09:12:00,
2013-07-24 05:17:00,69.5,69.2,29.59,SSE,148,0.0,0.0,99,0.00,,,0.02,VWS V14.01,2013-07-24 09:17:00,
2013-07-24 05:22:00,69.4,69.1,29.60,SSE,148,0.0,0.0,99,0.00,,,0.02,VWS V14.01,2013-07-24 09:22:00,
2013-07-24 05:27:00,69.4,69.1,29.60,SSE,148,0.0,0.0,99,0.00,,,0.02,VWS V14.01,2013-07-24 09:27:00,
2013-07-24 05:32:00,69.4,69.1,29.60,SSE,148,0.0,0.0,99,0.00,,,0.02,VWS V14.01,2013-07-24 09:32:00,
2013-07-24 05:38:00,69.3,69.0,29.60,SSE,148,0.0,0.0,99,0.00,,,0.02,VWS V14.01,2013-07-24 09:38:00,
2013-07-24 05:43:00,69.3,69.0,29.60,SSE,148,0.0,0.0,99,0.00,,,0.02,VWS V14.01,2013-07-24 09:43:00,
2013-07-24 05:48:00,69.1,68.8,29.60,SSE,148,0.0,0.0,99,0.00,,,0.02,VWS V14.01,2013-07-24 09:48:00,
2013-07-24 05:53:00,69.2,68.9,29.60,SSE,148,0.0,0.0,99,0.00,,,0.02,VWS V14.01,2013-07-24 09:53:00,
2013-07-24 05:58:00,69.2,68.9,29.61,SSE,148,0.0,0.0,99,0.00,,,0.02,VWS V14.01,2013-07-24 09:58:00,
2013-07-24 06:03:00,69.3,69.0,29.61,SSE,148,0.0,0.0,99,0.00,,,0.02,VWS V14.01,2013-07-24 10:03:00,
2013-07-24 06:08:00,69.4,69.1,29.61,SSE,148,0.0,0.0,99,0.00,,,0.02,VWS V14.01,2013-07-24 10:08:00,
2013-07-24 06:13:00,69.4,69.1,29.61,SSE,148,0.0,0.0,99,0.00,,,0.02,VWS V14.01,2013-07-24 10:13:00,
2013-07-24 06:18:00,69.4,69.1,29.61,SSE,148,0.0,0.0,99,0.00,,,0.02,VWS V14.01,2013-07-24 10:18:00,
2013-07-24 06:24:00,69.5,69.2,29.61,SSE,148,0.0,0.0,99,0.00,,,0.02,VWS V14.01,2013-07-24 10:24:00,
2013-07-24 06:29:00,69.6,69.3,29.61,SSE,148,0.0,0.0,99,0.00,,,0.02,VWS V14.01,2013-07-24 10:29:00,
2013-07-24 06:34:00,69.8,69.5,29.62,SSE,148,0.0,0.0,99,0.00,,,0.02,VWS V14.01,2013-07-24 10:34:00,
2013-07-24 06:39:00,69.8,69.5,29.62,SSE,148,0.0,0.0,99,0.00,,,0.02,VWS V14.01,2013-07-24 10:39:00,
2013-07-24 06:44:00,69.9,69.6,29.62,SSE,148,0.0,0.0,99,0.00,,,0.02,VWS V14.01,2013-07-24 10:44:00,
2013-07-24 06:49:00,69.9,69.9,29.62,NNW,341,0.0,0.0,100,0.00,,,0.02,VWS V14.01,2013-07-24 10:49:00,
2013-07-24 06:54:00,70.0,70.0,29.62,NNW,341,0.0,0.0,100,0.00,,,0.02,VWS V14.01,2013-07-24 10:54:00,
2013-07-24 06:59:00,70.2,70.2,29.62,NNW,341,0.0,0.0,100,0.00,,,0.02,VWS V14.01,2013-07-24 10:59:00,
2013-07-24 07:04:00,70.3,70.0,29.63,NNW,341,0.0,0.0,99,0.00,,,0.02,VWS V14.01,2013-07-24 11:04:00,
2013-07-24 07:09:00,70.4,70.1,29.63,NNW,341,0.0,0.0,99,0.00,,,0.02,VWS V14.01,2013-07-24 11:09:00,
2013-07-24 07:14:00,70.4,70.1,29.63,NNW,341,0.0,0.0,99,0.00,,,0.02,VWS V14.01,2013-07-24 11:14:00,
2013-07-24 07:20:00,70.5,70.2,29.63,NNW,341,0.0,0.0,99,0.00,,,0.02,VWS V14.01,2013-07-24 11:20:00,
2013-07-24 07:25:00,70.5,70.2,29.63,NNW,341,0.0,0.0,99,0.00,,,0.02,VWS V14.01,2013-07-24 11:25:00,
2013-07-24 07:30:00,70.6,70.6,29.63,NNW,341,0.0,0.0,100,0.00,,,0.02,VWS V14.01,2013-07-24 11:30:00,
2013-07-24 07:35:00,70.8,70.8,29.64,NNW,341,0.0,0.0,100,0.00,,,0.02,VWS V14.01,2013-07-24 11:35:00,
2013-07-24 07:40:00,71.0,70.7,29.64,NNW,341,0.0,0.0,99,0.00,,,0.02,VWS V14.01,2013-07-24 11:40:00,
2013-07-24 07:45:00,71.2,71.2,29.64,NNW,341,0.0,0.0,100,0.00,,,0.02,VWS V14.01,2013-07-24 11:45:00,
2013-07-24 07:50:00,71.6,71.6,29.64,NNW,341,0.0,0.0,100,0.00,,,0.02,VWS V14.01,2013-07-24 11:50:00,
2013-07-24 07:55:00,71.8,71.8,29.64,NNW,341,0.0,0.0,100,0.00,,,0.02,VWS V14.01,2013-07-24 11:55:00,
2013-07-24 08:00:00,72.4,72.4,29.65,NNW,341,0.0,0.0,100,0.00,,,0.02,VWS V14.01,2013-07-24 12:00:00,
2013-07-24 08:05:00,72.6,72.6,29.65,NNW,341,0.0,0.0,100,0.00,,,0.02,VWS V14.01,2013-07-24 12:05:00,
2013-07-24 08:10:00,72.7,72.7,29.65,NNW,341,0.0,0.0,100,0.00,,,0.02,VWS V14.01,2013-07-24 12:10:00,
2013-07-24 08:15:00,72.9,72.9,29.65,NNW,341,0.0,0.0,100,0.00,,,0.02,VWS V14.01,2013-07-24 12:15:00,
2013-07-24 08:20:00,72.8,72.5,29.65,WSW,251,0.0,0.0,99,0.00,,,0.02,VWS V14.01,2013-07-24 12:20:00,
2013-07-24 08:26:00,72.3,71.7,29.66,WSW,251,0.0,0.0,98,0.00,,,0.02,VWS V14.01,2013-07-24 12:26:00,
2013-07-24 08:31:00,72.8,72.5,29.66,WSW,251,0.0,0.0,99,0.00,,,0.02,VWS V14.01,2013-07-24 12:31:00,
2013-07-24 08:36:00,73.2,72.9,29.66,WSW,251,0.0,0.0,99,0.00,,,0.02,VWS V14.01,2013-07-24 12:36:00,
2013-07-24 08:41:00,73.3,72.7,29.66,WSW,251,0.0,0.0,98,0.00,,,0.02,VWS V14.01,2013-07-24 12:41:00,
2013-07-24 08:46:00,73.7,73.1,29.66,WSW,251,0.0,0.0,98,0.00,,,0.02,VWS V14.01,2013-07-24 12:46:00,
2013-07-24 08:51:00,73.6,72.4,29.66,SW,220,0.0,0.0,96,0.00,,,0.02,VWS V14.01,2013-07-24 12:51:00,
2013-07-24 08:57:00,74.4,73.8,29.66,SW,220,0.0,0.0,98,0.00,,,0.02,VWS V14.01,2013-07-24 12:57:00,
2013-07-24 09:02:00,75.1,73.9,29.66,SW,223,0.0,0.0,96,0.00,,,0.02,VWS V14.01,2013-07-24 13:02:00,
2013-07-24 09:07:00,75.2,72.7,29.66,NNW,332,0.0,3.0,92,0.00,,,0.02,VWS V14.01,2013-07-24 13:07:00,
2013-07-24 09:12:00,75.2,72.4,29.67,ENE,64,0.0,5.0,91,0.00,,,0.02,VWS V14.01,2013-07-24 13:12:00,
2013-07-24 09:17:00,75.7,72.9,29.67,ENE,64,0.0,5.0,91,0.00,,,0.02,VWS V14.01,2013-07-24 13:17:00,
2013-07-24 09:22:00,76.3,73.2,29.67,SSE,165,0.0,5.0,90,0.00,,,0.02,VWS V14.01,2013-07-24 13:22:00,
2013-07-24 09:27:00,76.4,72.9,29.67,SE,130,0.0,5.0,89,0.00,,,0.02,VWS V14.01,2013-07-24 13:27:00,
2013-07-24 09:32:00,76.2,72.1,29.68,NW,323,3.0,4.0,87,0.00,,,0.02,VWS V14.01,2013-07-24 13:32:00,
2013-07-24 09:37:00,75.8,72.0,29.68,NNW,327,0.0,6.0,88,0.00,,,0.02,VWS V14.01,2013-07-24 13:37:00,
2013-07-24 09:42:00,75.6,71.1,29.68,NNW,345,0.0,6.0,86,0.00,,,0.02,VWS V14.01,2013-07-24 13:42:00,
2013-07-24 09:47:00,75.7,72.6,29.68,NNW,345,0.0,6.0,90,0.00,,,0.02,VWS V14.01,2013-07-24 13:47:00,
2013-07-24 09:52:00,76.0,72.2,29.68,NNW,345,0.0,6.0,88,0.00,,,0.02,VWS V14.01,2013-07-24 13:52:00,
2013-07-24 09:57:00,76.5,72.0,29.68,North,355,0.0,6.0,86,0.00,,,0.02,VWS V14.01,2013-07-24 13:57:00,
2013-07-24 10:02:00,76.9,73.1,29.69,NW,324,0.0,0.0,88,0.00,,,0.02,VWS V14.01,2013-07-24 14:02:00,
2013-07-24 10:07:00,77.4,71.8,29.69,NW,324,0.0,1.0,83,0.00,,,0.02,VWS V14.01,2013-07-24 14:07:00,
2013-07-24 10:12:00,77.6,72.0,29.69,NNE,21,0.0,1.0,83,0.00,,,0.02,VWS V14.01,2013-07-24 14:12:00,
2013-07-24 10:17:00,77.6,72.7,29.69,NNE,21,1.0,1.0,85,0.00,,,0.02,VWS V14.01,2013-07-24 14:17:00,
2013-07-24 10:22:00,77.5,70.8,29.69,North,5,0.0,4.0,80,0.00,,,0.02,VWS V14.01,2013-07-24 14:22:00,
2013-07-24 10:27:00,77.2,70.6,29.70,North,355,0.0,4.0,80,0.00,,,0.02,VWS V14.01,2013-07-24 14:27:00,
2013-07-24 10:32:00,76.9,71.0,29.70,North,355,0.0,1.0,82,0.00,,,0.02,VWS V14.01,2013-07-24 14:32:00,
2013-07-24 10:37:00,76.8,70.9,29.70,NNW,340,0.0,2.0,82,0.00,,,0.02,VWS V14.01,2013-07-24 14:37:00,
2013-07-24 10:42:00,76.5,70.2,29.70,WNW,286,0.0,4.0,81,0.00,,,0.02,VWS V14.01,2013-07-24 14:42:00,
2013-07-24 10:47:00,76.4,70.9,29.70,SW,227,0.0,4.0,83,0.00,,,0.02,VWS V14.01,2013-07-24 14:47:00,
2013-07-24 10:52:00,76.5,71.0,29.70,SW,227,0.0,4.0,83,0.00,,,0.02,VWS V14.01,2013-07-24 14:52:00,
2013-07-24 10:57:00,76.6,70.7,29.70,ENE,75,0.0,4.0,82,0.00,,,0.02,VWS V14.01,2013-07-24 14:57:00,
2013-07-24 11:03:00,76.7,70.8,29.70,East,97,0.0,0.0,82,0.00,,,0.02,VWS V14.01,2013-07-24 15:03:00,
2013-07-24 11:08:00,76.9,70.3,29.70,East,97,0.0,1.0,80,0.00,,,0.02,VWS V14.01,2013-07-24 15:08:00,
2013-07-24 11:13:00,77.4,70.0,29.71,WSW,248,1.0,3.0,78,0.00,,,0.02,VWS V14.01,2013-07-24 15:13:00,
2013-07-24 11:18:00,77.8,70.4,29.70,SSW,204,2.0,3.0,78,0.00,,,0.02,VWS V14.01,2013-07-24 15:18:00,
2013-07-24 11:23:00,78.3,71.6,29.70,North,5,0.0,3.0,80,0.00,,,0.02,VWS V14.01,2013-07-24 15:23:00,
2013-07-24 11:28:00,78.5,71.4,29.71,NW,315,3.0,3.0,79,0.00,,,0.02,VWS V14.01,2013-07-24 15:28:00,
2013-07-24 11:33:00,78.6,71.6,29.71,NNW,333,0.0,2.0,79,0.00,,,0.02,VWS V14.01,2013-07-24 15:33:00,
2013-07-24 11:38:00,78.6,70.8,29.72,North,9,0.0,2.0,77,0.00,,,0.02,VWS V14.01,2013-07-24 15:38:00,
2013-07-24 11:43:00,78.5,71.4,29.72,NE,52,0.0,2.0,79,0.00,,,0.02,VWS V14.01,2013-07-24 15:43:00,
2013-07-24 11:48:00,78.4,68.6,29.72,East,101,1.0,2.0,72,0.00,,,0.02,VWS V14.01,2013-07-24 15:48:00,
2013-07-24 11:53:00,78.4,69.8,29.72,SW,221,0.0,2.0,75,0.00,,,0.02,VWS V14.01,2013-07-24 15:53:00,
2013-07-24 11:58:00,78.6,68.8,29.73,WNW,287,0.0,3.0,72,0.00,,,0.02,VWS V14.01,2013-07-24 15:58:00,
2013-07-24 12:03:00,78.6,69.2,29.73,WNW,297,1.0,4.0,73,0.00,,,0.02,VWS V14.01,2013-07-24 16:03:00,
2013-07-24 12:09:00,78.5,69.5,29.73,WNW,290,0.0,4.0,74,0.00,,,0.02,VWS V14.01,2013-07-24 16:09:00,
2013-07-24 12:14:00,78.5,71.1,29.73,WNW,290,0.0,4.0,78,0.00,,,0.02,VWS V14.01,2013-07-24 16:14:00,
2013-07-24 12:19:00,78.2,70.8,29.73,West,269,0.0,4.0,78,0.00,,,0.02,VWS V14.01,2013-07-24 16:19:00,
2013-07-24 12:24:00,78.0,69.4,29.73,NW,323,3.0,4.0,75,0.00,,,0.02,VWS V14.01,2013-07-24 16:24:00,
2013-07-24 12:29:00,77.9,70.1,29.73,NW,320,2.0,5.0,77,0.00,,,0.02,VWS V14.01,2013-07-24 16:29:00,
2013-07-24 12:34:00,77.9,70.9,29.73,WNW,297,0.0,1.0,79,0.00,,,0.02,VWS V14.01,2013-07-24 16:34:00,
2013-07-24 12:39:00,77.7,69.5,29.73,NW,319,0.0,3.0,76,0.00,,,0.02,VWS V14.01,2013-07-24 16:39:00,
2013-07-24 12:44:00,77.6,69.1,29.73,South,187,0.0,3.0,75,0.00,,,0.02,VWS V14.01,2013-07-24 16:44:00,
2013-07-24 12:49:00,77.0,68.1,29.73,North,5,1.0,3.0,74,0.00,,,0.02,VWS V14.01,2013-07-24 16:49:00,
2013-07-24 12:54:00,76.7,67.8,29.73,ENE,61,1.0,3.0,74,0.00,,,0.02,VWS V14.01,2013-07-24 16:54:00,
2013-07-24 12:59:00,77.3,69.5,29.73,NE,52,0.0,3.0,77,0.00,,,0.02,VWS V14.01,2013-07-24 16:59:00,
2013-07-24 13:04:00,78.2,70.4,29.73,NNW,327,0.0,3.0,77,0.00,,,0.02,VWS V14.01,2013-07-24 17:04:00,
2013-07-24 13:09:00,78.5,68.7,29.73,ENE,74,0.0,3.0,72,0.00,,,0.02,VWS V14.01,2013-07-24 17:09:00,
2013-07-24 13:14:00,78.5,69.1,29.73,WSW,243,1.0,3.0,73,0.01,,,0.03,VWS V14.01,2013-07-24 17:14:00,
2013-07-24 13:19:00,78.0,68.7,29.73,WNW,295,0.0,3.0,73,0.01,,,0.03,VWS V14.01,2013-07-24 17:19:00,
2013-07-24 13:24:00,77.4,68.9,29.73,WNW,300,1.0,7.0,75,0.01,,,0.03,VWS V14.01,2013-07-24 17:24:00,
2013-07-24 13:29:00,77.1,68.6,29.73,West,271,0.0,7.0,75,0.01,,,0.03,VWS V14.01,2013-07-24 17:29:00,
2013-07-24 13:34:00,76.6,67.3,29.73,WSW,251,0.0,4.0,73,0.01,,,0.03,VWS V14.01,2013-07-24 17:34:00,
2013-07-24 13:40:00,76.5,68.4,29.73,WSW,251,0.0,4.0,76,0.01,,,0.03,VWS V14.01,2013-07-24 17:40:00,
2013-07-24 13:45:00,76.4,68.3,29.73,East,96,0.0,4.0,76,0.01,,,0.03,VWS V14.01,2013-07-24 17:45:00,
2013-07-24 13:50:00,76.4,69.0,29.74,East,98,0.0,4.0,78,0.01,,,0.03,VWS V14.01,2013-07-24 17:50:00,
2013-07-24 13:55:00,76.4,67.5,29.74,East,98,0.0,4.0,74,0.01,,,0.03,VWS V14.01,2013-07-24 17:55:00,
2013-07-24 14:00:00,77.1,69.3,29.74,ENE,77,0.0,4.0,77,0.01,,,0.03,VWS V14.01,2013-07-24 18:00:00,
2013-07-24 14:05:00,77.3,66.8,29.74,WNW,291,2.0,3.0,70,0.01,,,0.03,VWS V14.01,2013-07-24 18:05:00,
2013-07-24 14:10:00,77.1,67.4,29.74,West,265,0.0,3.0,72,0.01,,,0.03,VWS V14.01,2013-07-24 18:10:00,
2013-07-24 14:15:00,76.9,68.0,29.74,West,272,0.0,3.0,74,0.01,,,0.03,VWS V14.01,2013-07-24 18:15:00,
2013-07-24 14:20:00,76.4,65.9,29.75,ENE,70,0.0,4.0,70,0.01,,,0.03,VWS V14.01,2013-07-24 18:20:00,
2013-07-24 14:25:00,76.2,66.5,29.75,WNW,294,0.0,4.0,72,0.01,,,0.03,VWS V14.01,2013-07-24 18:25:00,
2013-07-24 14:30:00,76.3,67.8,29.75,WNW,294,0.0,4.0,75,0.01,,,0.03,VWS V14.01,2013-07-24 18:30:00,
2013-07-24 14:35:00,76.6,68.1,29.75,WNW,288,1.0,3.0,75,0.00,,,0.03,VWS V14.01,2013-07-24 18:35:00,
2013-07-24 14:40:00,77.0,66.1,29.75,NNW,346,0.0,3.0,69,0.00,,,0.03,VWS V14.01,2013-07-24 18:40:00,
2013-07-24 14:45:00,77.4,68.1,29.75,WNW,293,0.0,3.0,73,0.00,,,0.03,VWS V14.01,2013-07-24 18:45:00,
2013-07-24 14:50:00,77.9,70.1,29.75,NNW,336,0.0,3.0,77,0.00,,,0.03,VWS V14.01,2013-07-24 18:50:00,
2013-07-24 14:55:00,78.0,69.1,29.75,SSE,155,0.0,3.0,74,0.00,,,0.03,VWS V14.01,2013-07-24 18:55:00,
2013-07-24 15:00:00,78.2,70.4,29.75,SSE,155,0.0,3.0,77,0.00,,,0.03,VWS V14.01,2013-07-24 19:00:00,
2013-07-24 15:05:00,78.4,67.8,29.75,SSE,147,1.0,2.0,70,0.00,,,0.03,VWS V14.01,2013-07-24 19:05:00,
2013-07-24 15:10:00,78.8,66.9,29.75,WNW,285,1.0,3.0,67,0.00,,,0.03,VWS V14.01,2013-07-24 19:10:00,
2013-07-24 15:15:00,78.7,67.3,29.76,NNW,331,0.0,5.0,68,0.00,,,0.03,VWS V14.01,2013-07-24 19:15:00,
2013-07-24 15:20:00,78.7,66.8,29.75,NW,312,0.0,5.0,67,0.00,,,0.03,VWS V14.01,2013-07-24 19:20:00,
2013-07-24 15:25:00,78.7,66.0,29.75,WNW,291,0.0,5.0,65,0.00,,,0.03,VWS V14.01,2013-07-24 19:25:00,
2013-07-24 15:30:00,78.7,64.6,29.75,WNW,291,0.0,5.0,62,0.00,,,0.03,VWS V14.01,2013-07-24 19:30:00,
2013-07-24 15:35:00,78.7,66.4,29.75,WNW,298,0.0,2.0,66,0.00,,,0.03,VWS V14.01,2013-07-24 19:35:00,
2013-07-24 15:40:00,78.9,67.4,29.76,NNW,342,0.0,2.0,68,0.00,,,0.03,VWS V14.01,2013-07-24 19:40:00,
2013-07-24 15:45:00,79.1,65.4,29.76,NNW,327,3.0,5.0,63,0.00,,,0.03,VWS V14.01,2013-07-24 19:45:00,
2013-07-24 15:51:00,79.0,65.3,29.76,West,275,0.0,5.0,63,0.00,,,0.03,VWS V14.01,2013-07-24 19:51:00,
2013-07-24 15:56:00,78.5,67.1,29.76,West,275,1.0,5.0,68,0.01,,,0.04,VWS V14.01,2013-07-24 19:56:00,
2013-07-24 16:01:00,77.9,66.5,29.76,West,275,0.0,0.0,68,0.01,,,0.04,VWS V14.01,2013-07-24 20:01:00,
2013-07-24 16:06:00,77.4,63.8,29.76,West,275,0.0,4.0,63,0.01,,,0.04,VWS V14.01,2013-07-24 20:06:00,
2013-07-24 16:11:00,77.0,65.6,29.76,WNW,290,1.0,4.0,68,0.01,,,0.04,VWS V14.01,2013-07-24 20:11:00,
2013-07-24 16:17:00,77.3,66.8,29.76,WNW,295,1.0,4.0,70,0.01,,,0.04,VWS V14.01,2013-07-24 20:17:00,
2013-07-24 16:22:00,77.3,66.8,29.76,SW,220,0.0,4.0,70,0.01,,,0.04,VWS V14.01,2013-07-24 20:22:00,
2013-07-24 16:27:00,77.0,66.1,29.76,SW,227,0.0,4.0,69,0.01,,,0.04,VWS V14.01,2013-07-24 20:27:00,
2013-07-24 16:32:00,76.9,67.2,29.76,SW,227,0.0,0.0,72,0.01,,,0.04,VWS V14.01,2013-07-24 20:32:00,
2013-07-24 16:37:00,76.6,64.8,29.76,WSW,247,1.0,3.0,67,0.01,,,0.04,VWS V14.01,2013-07-24 20:37:00,
2013-07-24 16:42:00,76.5,65.6,29.76,WSW,247,0.0,3.0,69,0.01,,,0.04,VWS V14.01,2013-07-24 20:42:00,
2013-07-24 16:47:00,76.4,66.3,29.76,WSW,255,1.0,3.0,71,0.01,,,0.04,VWS V14.01,2013-07-24 20:47:00,
2013-07-24 16:52:00,76.2,65.7,29.76,WNW,302,0.0,3.0,70,0.01,,,0.04,VWS V14.01,2013-07-24 20:52:00,
2013-07-24 16:57:00,76.2,65.3,29.76,WNW,303,0.0,3.0,69,0.01,,,0.04,VWS V14.01,2013-07-24 20:57:00,
2013-07-24 16:58:00,76.2,66.5,29.76,WNW,300,0.0,3.0,72,0.01,,,0.04,VWS V14.01,2013-07-24 20:58:00,
2013-07-24 17:03:00,76.0,65.5,29.77,WNW,286,0.0,6.0,70,0.00,,,0.04,VWS V14.01,2013-07-24 21:03:00,
2013-07-24 17:08:00,75.7,66.4,29.77,NW,306,2.0,6.0,73,0.00,,,0.04,VWS V14.01,2013-07-24 21:08:00,
2013-07-24 17:13:00,75.1,63.8,29.77,WNW,284,0.0,6.0,68,0.00,,,0.04,VWS V14.01,2013-07-24 21:13:00,
2013-07-24 17:18:00,74.8,64.4,29.78,NW,322,0.0,6.0,70,0.00,,,0.04,VWS V14.01,2013-07-24 21:18:00,
2013-07-24 17:23:00,74.6,63.8,29.78,West,277,0.0,6.0,69,0.00,,,0.04,VWS V14.01,2013-07-24 21:23:00,
2013-07-24 17:28:00,74.4,66.0,29.77,West,277,0.0,6.0,75,0.00,,,0.04,VWS V14.01,2013-07-24 21:28:00,
2013-07-24 17:34:00,74.3,63.1,29.77,WNW,286,2.0,5.0,68,0.00,,,0.04,VWS V14.01,2013-07-24 21:34:00,
2013-07-24 17:39:00,74.2,63.8,29.77,WNW,286,0.0,5.0,70,0.00,,,0.04,VWS V14.01,2013-07-24 21:39:00,
2013-07-24 17:44:00,74.1,63.3,29.77,WNW,303,1.0,5.0,69,0.00,,,0.04,VWS V14.01,2013-07-24 21:44:00,
2013-07-24 17:49:00,74.0,64.0,29.77,WNW,287,4.0,5.0,71,0.00,,,0.04,VWS V14.01,2013-07-24 21:49:00,
2013-07-24 17:54:00,73.9,63.5,29.77,SW,223,0.0,5.0,70,0.00,,,0.04,VWS V14.01,2013-07-24 21:54:00,
2013-07-24 17:59:00,73.8,63.0,29.77,NW,306,0.0,6.0,69,0.00,,,0.04,VWS V14.01,2013-07-24 21:59:00,
2013-07-24 18:04:00,73.6,63.2,29.77,West,277,0.0,4.0,70,0.00,,,0.04,VWS V14.01,2013-07-24 22:04:00,
2013-07-24 18:09:00,73.5,62.7,29.77,West,277,0.0,4.0,69,0.00,,,0.04,VWS V14.01,2013-07-24 22:09:00,
2013-07-24 18:14:00,73.2,62.8,29.77,SW,233,0.0,4.0,70,0.00,,,0.04,VWS V14.01,2013-07-24 22:14:00,
2013-07-24 18:19:00,72.9,62.1,29.78,NW,323,1.0,5.0,69,0.00,,,0.04,VWS V14.01,2013-07-24 22:19:00,
2013-07-24 18:24:00,72.6,61.9,29.78,WNW,285,1.0,5.0,69,0.00,,,0.04,VWS V14.01,2013-07-24 22:24:00,
2013-07-24 18:29:00,72.1,61.4,29.79,WNW,292,2.0,5.0,69,0.00,,,0.04,VWS V14.01,2013-07-24 22:29:00,
2013-07-24 18:34:00,71.7,60.6,29.79,NW,322,0.0,3.0,68,0.00,,,0.04,VWS V14.01,2013-07-24 22:34:00,
2013-07-24 18:39:00,71.4,62.3,29.79,NW,317,0.0,3.0,73,0.00,,,0.04,VWS V14.01,2013-07-24 22:39:00,
2013-07-24 18:44:00,71.0,62.7,29.80,NW,306,0.0,3.0,75,0.00,,,0.04,VWS V14.01,2013-07-24 22:44:00,
2013-07-24 18:49:00,70.6,64.1,29.80,NW,306,0.0,3.0,80,0.00,,,0.04,VWS V14.01,2013-07-24 22:49:00,
2013-07-24 18:55:00,70.1,62.9,29.80,NW,306,0.0,3.0,78,0.00,,,0.04,VWS V14.01,2013-07-24 22:55:00,
2013-07-24 19:00:00,69.5,63.1,29.81,West,280,0.0,3.0,80,0.00,,,0.04,VWS V14.01,2013-07-24 23:00:00,
2013-07-24 19:05:00,69.3,62.2,29.81,WNW,300,0.0,0.0,78,0.00,,,0.04,VWS V14.01,2013-07-24 23:05:00,
2013-07-24 19:10:00,69.1,63.4,29.81,WNW,300,0.0,0.0,82,0.00,,,0.04,VWS V14.01,2013-07-24 23:10:00,
2013-07-24 19:15:00,68.7,63.0,29.82,WNW,300,0.0,0.0,82,0.00,,,0.04,VWS V14.01,2013-07-24 23:15:00,
2013-07-24 19:20:00,68.2,61.5,29.82,West,272,4.0,4.0,79,0.00,,,0.04,VWS V14.01,2013-07-24 23:20:00,
2013-07-24 19:25:00,68.3,60.1,29.82,WNW,284,0.0,5.0,75,0.00,,,0.04,VWS V14.01,2013-07-24 23:25:00,
2013-07-24 19:30:00,68.4,60.5,29.83,WNW,283,0.0,5.0,76,0.00,,,0.04,VWS V14.01,2013-07-24 23:30:00,
2013-07-24 19:35:00,68.3,60.8,29.83,WNW,297,0.0,3.0,77,0.00,,,0.04,VWS V14.01,2013-07-24 23:35:00,
2013-07-24 19:40:00,68.0,61.6,29.83,NW,313,0.0,3.0,80,0.00,,,0.04,VWS V14.01,2013-07-24 23:40:00,
2013-07-24 19:45:00,67.7,60.6,29.84,SW,218,0.0,3.0,78,0.00,,,0.04,VWS V14.01,2013-07-24 23:45:00,
2013-07-24 19:50:00,67.6,60.1,29.84,SSW,194,0.0,3.0,77,0.00,,,0.04,VWS V14.01,2013-07-24 23:50:00,
2013-07-24 19:55:00,67.5,59.7,29.84,West,279,0.0,4.0,76,0.00,,,0.04,VWS V14.01,2013-07-24 23:55:00,
2013-07-24 20:00:00,67.3,60.2,29.84,West,271,0.0,4.0,78,0.00,,,0.04,VWS V14.01,2013-07-25 00:00:00,
2013-07-24 20:05:00,67.0,60.3,29.85,West,271,0.0,0.0,79,0.00,,,0.04,VWS V14.01,2013-07-25 00:05:00,
2013-07-24 20:10:00,66.6,60.6,29.85,West,271,0.0,0.0,81,0.00,,,0.04,VWS V14.01,2013-07-25 00:10:00,
2013-07-24 20:16:00,66.2,60.5,29.86,West,271,0.0,0.0,82,0.00,,,0.04,VWS V14.01,2013-07-25 00:16:00,
2013-07-24 20:21:00,65.9,60.3,29.85,West,271,0.0,0.0,82,0.00,,,0.04,VWS V14.01,2013-07-25 00:21:00,
2013-07-24 20:26:00,65.4,60.1,29.86,West,271,0.0,0.0,83,0.00,,,0.04,VWS V14.01,2013-07-25 00:26:00,
2013-07-24 20:31:00,65.0,60.0,29.86,West,271,0.0,0.0,84,0.00,,,0.04,VWS V14.01,2013-07-25 00:31:00,
2013-07-24 20:36:00,64.6,60.0,29.86,West,271,0.0,0.0,85,0.00,,,0.04,VWS V14.01,2013-07-25 00:36:00,
2013-07-24 20:41:00,64.1,59.8,29.87,West,271,0.0,0.0,86,0.00,,,0.04,VWS V14.01,2013-07-25 00:41:00,
2013-07-24 20:46:00,63.6,59.3,29.87,West,271,0.0,0.0,86,0.00,,,0.04,VWS V14.01,2013-07-25 00:46:00,
2013-07-24 20:51:00,63.2,59.0,29.87,West,271,0.0,0.0,86,0.00,,,0.04,VWS V14.01,2013-07-25 00:51:00,
2013-07-24 20:56:00,62.8,58.9,29.87,West,271,0.0,0.0,87,0.00,,,0.04,VWS V14.01,2013-07-25 00:56:00,
2013-07-24 21:01:00,62.5,58.6,29.88,West,271,0.0,0.0,87,0.00,,,0.04,VWS V14.01,2013-07-25 01:01:00,
2013-07-24 21:06:00,62.1,58.5,29.88,West,271,0.0,0.0,88,0.00,,,0.04,VWS V14.01,2013-07-25 01:06:00,
2013-07-24 21:11:00,61.9,58.3,29.88,West,271,0.0,0.0,88,0.00,,,0.04,VWS V14.01,2013-07-25 01:11:00,
2013-07-24 21:16:00,61.6,58.0,29.89,West,271,0.0,0.0,88,0.00,,,0.04,VWS V14.01,2013-07-25 01:16:00,
2013-07-24 21:22:00,61.4,58.1,29.89,West,271,0.0,0.0,89,0.00,,,0.04,VWS V14.01,2013-07-25 01:22:00,
2013-07-24 21:27:00,61.3,58.3,29.89,West,266,0.0,0.0,90,0.00,,,0.04,VWS V14.01,2013-07-25 01:27:00,
2013-07-24 21:32:00,61.2,58.2,29.89,West,266,0.0,0.0,90,0.00,,,0.04,VWS V14.01,2013-07-25 01:32:00,
2013-07-24 21:37:00,61.1,58.5,29.90,West,266,0.0,0.0,91,0.00,,,0.04,VWS V14.01,2013-07-25 01:37:00,
2013-07-24 21:42:00,61.0,58.4,29.91,West,266,0.0,0.0,91,0.00,,,0.04,VWS V14.01,2013-07-25 01:42:00,
2013-07-24 21:47:00,60.9,58.3,29.91,West,266,0.0,0.0,91,0.00,,,0.04,VWS V14.01,2013-07-25 01:47:00,
2013-07-24 21:52:00,60.8,58.2,29.91,West,266,0.0,0.0,91,0.00,,,0.04,VWS V14.01,2013-07-25 01:52:00,
2013-07-24 21:57:00,60.8,58.2,29.91,West,266,0.0,0.0,91,0.00,,,0.04,VWS V14.01,2013-07-25 01:57:00,
2013-07-24 22:02:00,60.8,57.8,29.91,West,266,0.0,0.0,90,0.00,,,0.04,VWS V14.01,2013-07-25 02:02:00,
2013-07-24 22:07:00,60.8,57.8,29.91,West,266,0.0,0.0,90,0.00,,,0.04,VWS V14.01,2013-07-25 02:07:00,
2013-07-24 22:12:00,60.9,58.0,29.91,West,266,0.0,0.0,90,0.00,,,0.04,VWS V14.01,2013-07-25 02:12:00,
2013-07-24 22:17:00,61.0,58.0,29.92,West,266,0.0,0.0,90,0.00,,,0.04,VWS V14.01,2013-07-25 02:17:00,
2013-07-24 22:23:00,61.1,58.2,29.92,West,266,0.0,0.0,90,0.00,,,0.04,VWS V14.01,2013-07-25 02:23:00,
2013-07-24 22:28:00,61.0,58.0,29.92,West,266,0.0,0.0,90,0.00,,,0.04,VWS V14.01,2013-07-25 02:28:00,
2013-07-24 22:33:00,60.9,57.6,29.92,West,266,0.0,0.0,89,0.00,,,0.04,VWS V14.01,2013-07-25 02:33:00,
2013-07-24 22:38:00,60.9,57.6,29.92,West,266,0.0,0.0,89,0.00,,,0.04,VWS V14.01,2013-07-25 02:38:00,
2013-07-24 22:43:00,60.7,56.5,29.92,ESE,102,0.0,2.0,86,0.00,,,0.04,VWS V14.01,2013-07-25 02:43:00,
2013-07-24 22:48:00,60.8,56.9,29.92,SE,125,0.0,2.0,87,0.00,,,0.04,VWS V14.01,2013-07-25 02:48:00,
2013-07-24 22:53:00,60.8,56.9,29.92,SE,125,0.0,2.0,87,0.00,,,0.04,VWS V14.01,2013-07-25 02:53:00,
2013-07-24 22:58:00,60.7,56.2,29.92,East,81,0.0,2.0,85,0.00,,,0.04,VWS V14.01,2013-07-25 02:58:00,
2013-07-24 23:03:00,60.6,56.1,29.92,East,92,0.0,0.0,85,0.00,,,0.04,VWS V14.01,2013-07-25 03:03:00,
2013-07-24 23:08:00,60.7,56.5,29.92,WNW,287,0.0,4.0,86,0.00,,,0.04,VWS V14.01,2013-07-25 03:08:00,
2013-07-24 23:13:00,60.7,55.8,29.92,WNW,287,0.0,4.0,84,0.00,,,0.04,VWS V14.01,2013-07-25 03:13:00,
2013-07-24 23:19:00,60.7,55.8,29.92,WNW,287,0.0,4.0,84,0.00,,,0.04,VWS V14.01,2013-07-25 03:19:00,
2013-07-24 23:24:00,60.8,56.3,29.92,SSE,160,0.0,4.0,85,0.00,,,0.04,VWS V14.01,2013-07-25 03:24:00,
2013-07-24 23:29:00,60.8,55.6,29.92,SSE,155,0.0,4.0,83,0.00,,,0.04,VWS V14.01,2013-07-25 03:29:00,
2013-07-24 23:34:00,60.8,55.9,29.92,SSE,155,0.0,0.0,84,0.00,,,0.04,VWS V14.01,2013-07-25 03:34:00,
2013-07-24 23:39:00,60.9,56.0,29.92,SSE,155,0.0,1.0,84,0.00,,,0.04,VWS V14.01,2013-07-25 03:39:00,
2013-07-24 23:44:00,61.0,55.8,29.93,SSW,213,0.0,2.0,83,0.00,,,0.04,VWS V14.01,2013-07-25 03:44:00,
2013-07-24 23:49:00,60.9,55.7,29.93,ESE,107,0.0,2.0,83,0.00,,,0.04,VWS V14.01,2013-07-25 03:49:00,
2013-07-24 23:54:00,60.8,55.3,29.93,ESE,107,0.0,2.0,82,0.00,,,0.04,VWS V14.01,2013-07-25 03:54:00,
2013-07-24 23:59:00,60.8,55.9,29.94,ESE,107,0.0,2.0,84,0.00,,,0.04,VWS V14.01,2013-07-25 03:59:00,